Strathpeffer, United Kingdom
Current Conditions -  °F | °C
As of 7:20 PM on Friday 31 Oct 2014 (Local Time) from EGPE Reporting Station
Broken Clouds Broken Clouds  
Wind Chill: 57°   Ceiling: 3200
Heat Index: 57°   Visibility: 6mi
Dew Point: 55°   Wind: 12mph
Humidity: 94%   Direction: 270°W
Pressure: 29.53"   Gusts: NA
Location:  57.6°N, 4.53°W
Report Text: EGPE 311920Z 27010KT 9000 FEW010 BKN032 14/13 Q1000
Loading
Personal Weather Stations






























Interactive Weather Map
Tropical Storm Tracking
New forecast layout! Learn more

10-Day Weather Forecast

Advertisements
Track Severe Weather on mobile